sensor_id;sensor_type;location;lat;lon;timestamp;P1;durP1;ratioP1;P2;durP2;ratioP2
28245;SDS011;15510;52.512;13.300;2023-06-01T00:02:24;1.98;;;1.35;;
28245;SDS011;15510;52.512;13.300;2023-06-01T00:04:51;3.00;;;1.50;;
28245;SDS011;15510;52.512;13.300;2023-06-01T00:07:17;5.90;;;1.45;;
28245;SDS011;15510;52.512;13.300;2023-06-01T00:09:43;5.97;;;1.48;;
28245;SDS011;15510;52.512;13.300;2023-06-01T00:12:09;1.45;;;1.02;;
28245;SDS011;15510;52.512;13.300;2023-06-01T00:14:35;6.65;;;1.20;;
28245;SDS011;15510;52.512;13.300;2023-06-01T00:17:01;5.97;;;1.60;;
28245;SDS011;15510;52.512;13.300;2023-06-01T00:19:28;1.83;;;1.40;;
28245;SDS011;15510;52.512;13.300;2023-06-01T00:21:54;4.20;;;1.55;;
28245;SDS011;15510;52.512;13.300;2023-06-01T00:24:21;8.85;;;1.63;;
28245;SDS011;15510;52.512;13.300;2023-06-01T00:26:47;4.60;;;1.63;;
28245;SDS011;15510;52.512;13.300;2023-06-01T00:29:14;3.58;;;1.13;;
28245;SDS011;15510;52.512;13.300;2023-06-01T00:31:40;4.05;;;1.33;;
28245;SDS011;15510;52.512;13.300;2023-06-01T00:34:06;4.43;;;1.63;;
28245;SDS011;15510;52.512;13.300;2023-06-01T00:36:33;3.75;;;1.83;;
28245;SDS011;15510;52.512;13.300;2023-06-01T00:38:59;2.80;;;1.55;;
28245;SDS011;15510;52.512;13.300;2023-06-01T00:41:30;2.80;;;1.50;;
28245;SDS011;15510;52.512;13.300;2023-06-01T00:43:57;5.40;;;1.90;;
28245;SDS011;15510;52.512;13.300;2023-06-01T00:46:23;2.42;;;1.35;;
28245;SDS011;15510;52.512;13.300;2023-06-01T00:48:50;3.13;;;2.05;;
28245;SDS011;15510;52.512;13.300;2023-06-01T00:51:17;5.18;;;1.67;;
28245;SDS011;15510;52.512;13.300;2023-06-01T00:53:43;3.95;;;2.15;;
28245;SDS011;15510;52.512;13.300;2023-06-01T00:56:09;4.80;;;1.50;;
28245;SDS011;15510;52.512;13.300;2023-06-01T00:58:41;6.20;;;2.03;;
28245;SDS011;15510;52.512;13.300;2023-06-01T01:01:08;4.30;;;1.80;;
28245;SDS011;15510;52.512;13.300;2023-06-01T01:03:44;4.35;;;1.83;;
28245;SDS011;15510;52.512;13.300;2023-06-01T01:06:27;5.80;;;1.60;;
28245;SDS011;15510;52.512;13.300;2023-06-01T01:11:47;5.10;;;1.67;;
28245;SDS011;15510;52.512;13.300;2023-06-01T01:14:30;4.32;;;1.70;;
28245;SDS011;15510;52.512;13.300;2023-06-01T01:25:44;5.63;;;1.95;;
28245;SDS011;15510;52.512;13.300;2023-06-01T01:30:59;4.60;;;1.88;;
28245;SDS011;15510;52.512;13.300;2023-06-01T01:33:28;3.92;;;1.95;;
28245;SDS011;15510;52.512;13.300;2023-06-01T01:35:56;3.30;;;1.80;;
28245;SDS011;15510;52.512;13.300;2023-06-01T01:38:23;6.32;;;1.98;;
28245;SDS011;15510;52.512;13.300;2023-06-01T01:40:49;4.70;;;2.25;;
28245;SDS011;15510;52.512;13.300;2023-06-01T01:43:18;4.90;;;2.33;;
28245;SDS011;15510;52.512;13.300;2023-06-01T01:45:45;4.28;;;1.90;;
28245;SDS011;15510;52.512;13.300;2023-06-01T01:48:22;2.60;;;1.83;;
28245;SDS011;15510;52.512;13.300;2023-06-01T01:50:56;5.32;;;1.83;;
28245;SDS011;15510;52.512;13.300;2023-06-01T01:53:27;4.82;;;2.05;;
28245;SDS011;15510;52.512;13.300;2023-06-01T01:55:55;6.43;;;1.90;;
28245;SDS011;15510;52.512;13.300;2023-06-01T01:58:23;5.57;;;2.35;;
28245;SDS011;15510;52.512;13.300;2023-06-01T02:00:51;6.65;;;2.00;;
28245;SDS011;15510;52.512;13.300;2023-06-01T02:03:18;7.07;;;2.38;;
28245;SDS011;15510;52.512;13.300;2023-06-01T02:05:45;6.53;;;2.00;;
28245;SDS011;15510;52.512;13.300;2023-06-01T02:08:11;5.43;;;2.15;;
28245;SDS011;15510;52.512;13.300;2023-06-01T02:10:37;4.60;;;2.25;;
28245;SDS011;15510;52.512;13.300;2023-06-01T02:13:03;4.28;;;2.50;;
28245;SDS011;15510;52.512;13.300;2023-06-01T02:15:30;6.22;;;2.45;;
28245;SDS011;15510;52.512;13.300;2023-06-01T02:17:56;4.53;;;2.78;;
28245;SDS011;15510;52.512;13.300;2023-06-01T02:20:22;6.15;;;2.78;;
28245;SDS011;15510;52.512;13.300;2023-06-01T02:22:48;3.50;;;2.35;;
28245;SDS011;15510;52.512;13.300;2023-06-01T02:25:13;5.60;;;3.00;;
28245;SDS011;15510;52.512;13.300;2023-06-01T02:27:40;5.90;;;2.78;;
28245;SDS011;15510;52.512;13.300;2023-06-01T02:30:06;8.60;;;2.70;;
28245;SDS011;15510;52.512;13.300;2023-06-01T02:32:32;4.72;;;2.38;;
28245;SDS011;15510;52.512;13.300;2023-06-01T02:35:00;6.78;;;2.80;;
28245;SDS011;15510;52.512;13.300;2023-06-01T02:37:26;7.38;;;2.90;;
28245;SDS011;15510;52.512;13.300;2023-06-01T02:39:52;5.78;;;2.97;;
28245;SDS011;15510;52.512;13.300;2023-06-01T02:42:20;7.90;;;2.75;;
28245;SDS011;15510;52.512;13.300;2023-06-01T02:44:46;5.25;;;2.90;;
28245;SDS011;15510;52.512;13.300;2023-06-01T02:47:12;4.75;;;2.88;;
28245;SDS011;15510;52.512;13.300;2023-06-01T02:49:38;5.75;;;2.90;;
28245;SDS011;15510;52.512;13.300;2023-06-01T02:52:04;8.38;;;3.75;;
28245;SDS011;15510;52.512;13.300;2023-06-01T02:54:30;5.65;;;3.33;;
28245;SDS011;15510;52.512;13.300;2023-06-01T02:57:00;8.90;;;3.40;;
28245;SDS011;15510;52.512;13.300;2023-06-01T02:59:49;5.07;;;3.05;;
28245;SDS011;15510;52.512;13.300;2023-06-01T03:02:15;7.22;;;3.08;;
28245;SDS011;15510;52.512;13.300;2023-06-01T03:04:40;9.82;;;3.55;;
28245;SDS011;15510;52.512;13.300;2023-06-01T03:07:06;5.32;;;2.97;;
28245;SDS011;15510;52.512;13.300;2023-06-01T03:09:40;7.60;;;3.40;;
28245;SDS011;15510;52.512;13.300;2023-06-01T03:12:21;5.25;;;4.00;;
28245;SDS011;15510;52.512;13.300;2023-06-01T03:14:47;5.38;;;3.40;;
28245;SDS011;15510;52.512;13.300;2023-06-01T03:17:12;10.00;;;4.10;;
28245;SDS011;15510;52.512;13.300;2023-06-01T03:19:38;8.68;;;4.38;;
28245;SDS011;15510;52.512;13.300;2023-06-01T03:22:19;8.23;;;4.68;;
28245;SDS011;15510;52.512;13.300;2023-06-01T03:24:45;9.65;;;4.00;;
28245;SDS011;15510;52.512;13.300;2023-06-01T03:27:15;8.23;;;4.38;;
28245;SDS011;15510;52.512;13.300;2023-06-01T03:29:41;8.50;;;4.40;;
28245;SDS011;15510;52.512;13.300;2023-06-01T03:32:07;9.88;;;5.05;;
28245;SDS011;15510;52.512;13.300;2023-06-01T03:34:33;11.93;;;4.88;;
28245;SDS011;15510;52.512;13.300;2023-06-01T03:37:02;8.23;;;4.53;;
28245;SDS011;15510;52.512;13.300;2023-06-01T03:39:29;9.05;;;4.47;;
28245;SDS011;15510;52.512;13.300;2023-06-01T03:41:59;10.18;;;4.93;;
28245;SDS011;15510;52.512;13.300;2023-06-01T03:44:25;8.23;;;4.68;;
28245;SDS011;15510;52.512;13.300;2023-06-01T03:46:51;7.25;;;4.38;;
28245;SDS011;15510;52.512;13.300;2023-06-01T03:49:17;9.70;;;4.95;;
28245;SDS011;15510;52.512;13.300;2023-06-01T03:51:43;10.32;;;5.00;;
28245;SDS011;15510;52.512;13.300;2023-06-01T03:54:11;9.35;;;5.53;;
28245;SDS011;15510;52.512;13.300;2023-06-01T03:56:38;8.85;;;5.57;;
28245;SDS011;15510;52.512;13.300;2023-06-01T03:59:04;12.90;;;5.60;;
28245;SDS011;15510;52.512;13.300;2023-06-01T04:01:36;9.13;;;5.33;;
28245;SDS011;15510;52.512;13.300;2023-06-01T04:04:05;11.55;;;5.15;;
28245;SDS011;15510;52.512;13.300;2023-06-01T04:06:33;12.80;;;5.20;;
28245;SDS011;15510;52.512;13.300;2023-06-01T04:09:02;8.98;;;5.07;;
28245;SDS011;15510;52.512;13.300;2023-06-01T04:11:32;12.80;;;6.28;;
28245;SDS011;15510;52.512;13.300;2023-06-01T04:13:59;13.00;;;6.30;;
28245;SDS011;15510;52.512;13.300;2023-06-01T04:16:26;11.67;;;6.33;;
28245;SDS011;15510;52.512;13.300;2023-06-01T04:18:52;13.07;;;5.93;;
28245;SDS011;15510;52.512;13.300;2023-06-01T04:21:24;18.53;;;7.00;;
28245;SDS011;15510;52.512;13.300;2023-06-01T04:23:51;13.43;;;7.57;;
28245;SDS011;15510;52.512;13.300;2023-06-01T04:26:18;17.85;;;8.30;;
28245;SDS011;15510;52.512;13.300;2023-06-01T04:28:44;13.35;;;7.80;;
28245;SDS011;15510;52.512;13.300;2023-06-01T04:31:14;17.40;;;8.70;;
28245;SDS011;15510;52.512;13.300;2023-06-01T04:33:45;17.13;;;9.10;;
28245;SDS011;15510;52.512;13.300;2023-06-01T04:36:17;14.38;;;8.32;;
28245;SDS011;15510;52.512;13.300;2023-06-01T04:38:49;14.40;;;8.30;;
28245;SDS011;15510;52.512;13.300;2023-06-01T04:41:19;14.03;;;8.10;;
28245;SDS011;15510;52.512;13.300;2023-06-01T04:43:47;13.10;;;8.10;;
28245;SDS011;15510;52.512;13.300;2023-06-01T04:46:21;14.13;;;8.03;;
28245;SDS011;15510;52.512;13.300;2023-06-01T04:48:49;14.50;;;8.00;;
28245;SDS011;15510;52.512;13.300;2023-06-01T04:51:17;18.30;;;8.53;;
28245;SDS011;15510;52.512;13.300;2023-06-01T04:53:45;12.97;;;8.67;;
28245;SDS011;15510;52.512;13.300;2023-06-01T04:56:18;12.93;;;7.87;;
28245;SDS011;15510;52.512;13.300;2023-06-01T04:58:54;12.70;;;8.43;;
28245;SDS011;15510;52.512;13.300;2023-06-01T05:01:23;13.67;;;7.20;;
28245;SDS011;15510;52.512;13.300;2023-06-01T05:03:52;11.93;;;7.73;;
28245;SDS011;15510;52.512;13.300;2023-06-01T05:06:20;20.23;;;8.63;;
28245;SDS011;15510;52.512;13.300;2023-06-01T05:08:46;19.37;;;9.00;;
28245;SDS011;15510;52.512;13.300;2023-06-01T05:11:13;17.00;;;9.97;;
28245;SDS011;15510;52.512;13.300;2023-06-01T05:13:39;14.57;;;9.10;;
28245;SDS011;15510;52.512;13.300;2023-06-01T05:16:07;13.37;;;7.77;;
28245;SDS011;15510;52.512;13.300;2023-06-01T05:18:33;11.37;;;7.10;;
28245;SDS011;15510;52.512;13.300;2023-06-01T05:21:00;13.77;;;6.80;;
28245;SDS011;15510;52.512;13.300;2023-06-01T05:23:26;13.37;;;6.07;;
28245;SDS011;15510;52.512;13.300;2023-06-01T05:25:53;12.43;;;7.47;;
28245;SDS011;15510;52.512;13.300;2023-06-01T05:28:24;11.77;;;7.40;;
28245;SDS011;15510;52.512;13.300;2023-06-01T05:30:50;8.17;;;6.47;;
28245;SDS011;15510;52.512;13.300;2023-06-01T05:33:16;14.03;;;7.50;;
28245;SDS011;15510;52.512;13.300;2023-06-01T05:35:42;12.70;;;7.20;;
28245;SDS011;15510;52.512;13.300;2023-06-01T05:38:12;10.20;;;5.90;;
28245;SDS011;15510;52.512;13.300;2023-06-01T05:40:38;14.07;;;6.70;;
28245;SDS011;15510;52.512;13.300;2023-06-01T05:43:04;12.07;;;6.37;;
28245;SDS011;15510;52.512;13.300;2023-06-01T05:45:32;10.18;;;5.93;;
28245;SDS011;15510;52.512;13.300;2023-06-01T05:47:57;8.33;;;5.37;;
28245;SDS011;15510;52.512;13.300;2023-06-01T05:50:24;9.63;;;5.60;;
28245;SDS011;15510;52.512;13.300;2023-06-01T05:52:50;10.75;;;6.15;;
28245;SDS011;15510;52.512;13.300;2023-06-01T05:55:17;12.03;;;5.43;;
28245;SDS011;15510;52.512;13.300;2023-06-01T05:57:42;14.65;;;9.75;;
28245;SDS011;15510;52.512;13.300;2023-06-01T06:00:08;15.30;;;5.18;;
28245;SDS011;15510;52.512;13.300;2023-06-01T06:02:43;16.33;;;5.70;;
28245;SDS011;15510;52.512;13.300;2023-06-01T06:05:09;14.32;;;5.15;;
28245;SDS011;15510;52.512;13.300;2023-06-01T06:07:36;10.00;;;5.30;;
28245;SDS011;15510;52.512;13.300;2023-06-01T06:10:02;11.07;;;5.50;;
28245;SDS011;15510;52.512;13.300;2023-06-01T06:12:28;13.25;;;5.85;;
28245;SDS011;15510;52.512;13.300;2023-06-01T06:14:55;8.43;;;4.90;;
28245;SDS011;15510;52.512;13.300;2023-06-01T06:17:20;8.73;;;4.72;;
28245;SDS011;15510;52.512;13.300;2023-06-01T06:19:46;9.97;;;4.43;;
28245;SDS011;15510;52.512;13.300;2023-06-01T06:22:15;13.30;;;5.20;;
28245;SDS011;15510;52.512;13.300;2023-06-01T06:24:41;10.23;;;4.63;;
28245;SDS011;15510;52.512;13.300;2023-06-01T06:27:09;11.38;;;5.10;;
28245;SDS011;15510;52.512;13.300;2023-06-01T06:29:35;8.80;;;4.70;;
28245;SDS011;15510;52.512;13.300;2023-06-01T06:32:01;9.75;;;5.30;;
28245;SDS011;15510;52.512;13.300;2023-06-01T06:34:27;10.55;;;3.95;;
28245;SDS011;15510;52.512;13.300;2023-06-01T06:37:04;10.05;;;4.25;;
28245;SDS011;15510;52.512;13.300;2023-06-01T06:39:31;17.58;;;4.35;;
28245;SDS011;15510;52.512;13.300;2023-06-01T06:41:57;8.05;;;4.70;;
28245;SDS011;15510;52.512;13.300;2023-06-01T06:44:23;10.10;;;4.77;;
28245;SDS011;15510;52.512;13.300;2023-06-01T06:46:49;9.43;;;5.25;;
28245;SDS011;15510;52.512;13.300;2023-06-01T06:49:15;9.90;;;5.30;;
28245;SDS011;15510;52.512;13.300;2023-06-01T06:51:40;7.25;;;4.40;;
28245;SDS011;15510;52.512;13.300;2023-06-01T06:54:06;10.07;;;4.82;;
28245;SDS011;15510;52.512;13.300;2023-06-01T06:56:32;9.77;;;3.97;;
28245;SDS011;15510;52.512;13.300;2023-06-01T06:58:58;7.00;;;4.50;;
28245;SDS011;15510;52.512;13.300;2023-06-01T07:01:24;6.82;;;4.43;;
28245;SDS011;15510;52.512;13.300;2023-06-01T07:03:53;6.07;;;3.92;;
28245;SDS011;15510;52.512;13.300;2023-06-01T07:06:21;7.35;;;4.63;;
28245;SDS011;15510;52.512;13.300;2023-06-01T07:08:47;12.48;;;4.25;;
28245;SDS011;15510;52.512;13.300;2023-06-01T07:11:14;10.82;;;4.60;;
28245;SDS011;15510;52.512;13.300;2023-06-01T07:13:40;10.48;;;4.28;;
28245;SDS011;15510;52.512;13.300;2023-06-01T07:16:06;10.70;;;4.68;;
28245;SDS011;15510;52.512;13.300;2023-06-01T07:18:32;6.55;;;4.22;;
28245;SDS011;15510;52.512;13.300;2023-06-01T07:20:57;10.88;;;4.82;;
28245;SDS011;15510;52.512;13.300;2023-06-01T07:23:23;7.28;;;4.20;;
28245;SDS011;15510;52.512;13.300;2023-06-01T07:25:49;7.28;;;3.90;;
28245;SDS011;15510;52.512;13.300;2023-06-01T07:28:15;8.55;;;4.93;;
28245;SDS011;15510;52.512;13.300;2023-06-01T07:30:41;10.02;;;4.55;;
28245;SDS011;15510;52.512;13.300;2023-06-01T07:33:07;8.95;;;4.18;;
28245;SDS011;15510;52.512;13.300;2023-06-01T07:35:33;6.47;;;4.53;;
28245;SDS011;15510;52.512;13.300;2023-06-01T07:38:00;7.50;;;4.55;;
28245;SDS011;15510;52.512;13.300;2023-06-01T07:40:27;8.55;;;4.63;;
28245;SDS011;15510;52.512;13.300;2023-06-01T07:42:54;13.88;;;8.38;;
28245;SDS011;15510;52.512;13.300;2023-06-01T07:45:20;11.93;;;4.35;;
28245;SDS011;15510;52.512;13.300;2023-06-01T07:47:45;7.90;;;4.50;;
28245;SDS011;15510;52.512;13.300;2023-06-01T07:50:11;10.95;;;4.32;;
28245;SDS011;15510;52.512;13.300;2023-06-01T07:52:37;10.75;;;4.43;;
28245;SDS011;15510;52.512;13.300;2023-06-01T07:55:03;8.35;;;4.13;;
28245;SDS011;15510;52.512;13.300;2023-06-01T07:57:30;10.82;;;4.65;;
28245;SDS011;15510;52.512;13.300;2023-06-01T07:59:56;11.23;;;4.90;;
28245;SDS011;15510;52.512;13.300;2023-06-01T08:02:21;10.25;;;5.03;;
28245;SDS011;15510;52.512;13.300;2023-06-01T08:04:47;8.85;;;4.75;;
28245;SDS011;15510;52.512;13.300;2023-06-01T08:07:14;9.25;;;4.50;;
28245;SDS011;15510;52.512;13.300;2023-06-01T08:09:41;10.05;;;5.00;;
28245;SDS011;15510;52.512;13.300;2023-06-01T08:12:08;7.30;;;4.65;;
28245;SDS011;15510;52.512;13.300;2023-06-01T08:14:36;13.32;;;4.80;;
28245;SDS011;15510;52.512;13.300;2023-06-01T08:17:02;6.60;;;4.50;;
28245;SDS011;15510;52.512;13.300;2023-06-01T08:19:29;8.82;;;4.45;;
28245;SDS011;15510;52.512;13.300;2023-06-01T08:21:55;8.38;;;4.22;;
28245;SDS011;15510;52.512;13.300;2023-06-01T08:24:20;12.77;;;4.97;;
28245;SDS011;15510;52.512;13.300;2023-06-01T08:26:50;9.35;;;5.45;;
28245;SDS011;15510;52.512;13.300;2023-06-01T08:29:21;9.48;;;4.32;;
28245;SDS011;15510;52.512;13.300;2023-06-01T08:31:46;7.82;;;3.80;;
28245;SDS011;15510;52.512;13.300;2023-06-01T08:34:12;8.73;;;4.07;;
28245;SDS011;15510;52.512;13.300;2023-06-01T08:36:38;7.80;;;3.85;;
28245;SDS011;15510;52.512;13.300;2023-06-01T08:39:22;7.00;;;4.22;;
28245;SDS011;15510;52.512;13.300;2023-06-01T08:45:06;8.25;;;4.30;;
28245;SDS011;15510;52.512;13.300;2023-06-01T08:47:32;9.68;;;4.38;;
28245;SDS011;15510;52.512;13.300;2023-06-01T08:49:59;7.30;;;4.10;;
28245;SDS011;15510;52.512;13.300;2023-06-01T08:52:26;9.57;;;4.22;;
28245;SDS011;15510;52.512;13.300;2023-06-01T08:54:58;9.60;;;3.88;;
28245;SDS011;15510;52.512;13.300;2023-06-01T08:57:24;9.73;;;4.05;;
28245;SDS011;15510;52.512;13.300;2023-06-01T08:59:50;9.13;;;5.03;;
28245;SDS011;15510;52.512;13.300;2023-06-01T09:02:17;10.65;;;4.32;;
28245;SDS011;15510;52.512;13.300;2023-06-01T09:04:42;10.57;;;4.35;;
28245;SDS011;15510;52.512;13.300;2023-06-01T09:07:13;11.45;;;3.75;;
28245;SDS011;15510;52.512;13.300;2023-06-01T09:09:39;14.65;;;4.75;;
28245;SDS011;15510;52.512;13.300;2023-06-01T09:15:12;10.75;;;4.78;;
28245;SDS011;15510;52.512;13.300;2023-06-01T09:17:42;8.70;;;4.95;;
28245;SDS011;15510;52.512;13.300;2023-06-01T09:20:12;9.90;;;4.82;;
28245;SDS011;15510;52.512;13.300;2023-06-01T09:22:43;9.90;;;4.82;;
28245;SDS011;15510;52.512;13.300;2023-06-01T09:25:11;9.40;;;4.78;;
28245;SDS011;15510;52.512;13.300;2023-06-01T09:27:44;7.15;;;4.60;;
28245;SDS011;15510;52.512;13.300;2023-06-01T09:30:14;10.55;;;5.15;;
28245;SDS011;15510;52.512;13.300;2023-06-01T09:32:42;7.80;;;4.78;;
28245;SDS011;15510;52.512;13.300;2023-06-01T09:35:09;11.23;;;5.43;;
28245;SDS011;15510;52.512;13.300;2023-06-01T09:37:36;12.57;;;5.20;;
28245;SDS011;15510;52.512;13.300;2023-06-01T09:40:16;14.48;;;7.03;;
28245;SDS011;15510;52.512;13.300;2023-06-01T09:42:43;9.48;;;5.93;;
28245;SDS011;15510;52.512;13.300;2023-06-01T09:45:16;10.50;;;5.88;;
28245;SDS011;15510;52.512;13.300;2023-06-01T09:47:47;13.05;;;6.60;;
28245;SDS011;15510;52.512;13.300;2023-06-01T09:50:35;11.82;;;6.95;;
28245;SDS011;15510;52.512;13.300;2023-06-01T09:53:05;12.13;;;7.00;;
28245;SDS011;15510;52.512;13.300;2023-06-01T09:55:31;11.43;;;8.02;;
28245;SDS011;15510;52.512;13.300;2023-06-01T09:58:16;12.00;;;8.13;;
28245;SDS011;15510;52.512;13.300;2023-06-01T10:00:50;11.02;;;6.88;;
28245;SDS011;15510;52.512;13.300;2023-06-01T10:03:17;10.93;;;7.70;;
28245;SDS011;15510;52.512;13.300;2023-06-01T10:05:45;21.23;;;7.50;;
28245;SDS011;15510;52.512;13.300;2023-06-01T10:08:12;13.23;;;8.38;;
28245;SDS011;15510;52.512;13.300;2023-06-01T10:10:43;13.02;;;8.05;;
28245;SDS011;15510;52.512;13.300;2023-06-01T10:13:10;11.98;;;7.82;;
28245;SDS011;15510;52.512;13.300;2023-06-01T10:15:37;9.52;;;7.70;;
28245;SDS011;15510;52.512;13.300;2023-06-01T10:18:03;12.65;;;7.75;;
28245;SDS011;15510;52.512;13.300;2023-06-01T10:20:36;14.75;;;7.90;;
28245;SDS011;15510;52.512;13.300;2023-06-01T10:23:03;14.10;;;8.05;;
28245;SDS011;15510;52.512;13.300;2023-06-01T10:25:37;15.13;;;8.23;;
28245;SDS011;15510;52.512;13.300;2023-06-01T10:28:09;11.57;;;8.70;;
28245;SDS011;15510;52.512;13.300;2023-06-01T10:30:36;12.45;;;8.63;;
28245;SDS011;15510;52.512;13.300;2023-06-01T10:33:02;9.65;;;7.57;;
28245;SDS011;15510;52.512;13.300;2023-06-01T10:40:42;11.15;;;8.38;;
28245;SDS011;15510;52.512;13.300;2023-06-01T10:46:03;13.85;;;8.93;;
28245;SDS011;15510;52.512;13.300;2023-06-01T10:48:50;10.00;;;7.93;;
28245;SDS011;15510;52.512;13.300;2023-06-01T10:51:18;12.13;;;8.10;;
28245;SDS011;15510;52.512;13.300;2023-06-01T10:53:45;12.70;;;7.78;;
28245;SDS011;15510;52.512;13.300;2023-06-01T10:56:17;13.43;;;8.85;;
28245;SDS011;15510;52.512;13.300;2023-06-01T11:01:36;9.10;;;7.05;;
28245;SDS011;15510;52.512;13.300;2023-06-01T11:04:03;12.27;;;8.52;;
28245;SDS011;15510;52.512;13.300;2023-06-01T11:06:29;16.83;;;11.93;;
28245;SDS011;15510;52.512;13.300;2023-06-01T11:08:59;12.80;;;6.88;;
28245;SDS011;15510;52.512;13.300;2023-06-01T11:14:20;9.48;;;6.20;;
28245;SDS011;15510;52.512;13.300;2023-06-01T11:16:48;8.48;;;6.40;;
28245;SDS011;15510;52.512;13.300;2023-06-01T11:19:19;8.30;;;6.32;;
28245;SDS011;15510;52.512;13.300;2023-06-01T11:21:59;8.90;;;5.85;;
28245;SDS011;15510;52.512;13.300;2023-06-01T11:24:33;8.35;;;5.13;;
28245;SDS011;15510;52.512;13.300;2023-06-01T11:27:07;8.18;;;5.43;;
28245;SDS011;15510;52.512;13.300;2023-06-01T11:29:35;8.68;;;5.50;;
28245;SDS011;15510;52.512;13.300;2023-06-01T11:32:03;10.82;;;5.28;;
28245;SDS011;15510;52.512;13.300;2023-06-01T11:34:37;10.57;;;5.10;;
28245;SDS011;15510;52.512;13.300;2023-06-01T11:37:12;8.48;;;4.82;;
28245;SDS011;15510;52.512;13.300;2023-06-01T11:39:39;7.60;;;4.63;;
28245;SDS011;15510;52.512;13.300;2023-06-01T11:42:09;10.93;;;4.82;;
28245;SDS011;15510;52.512;13.300;2023-06-01T11:44:41;7.05;;;4.72;;
28245;SDS011;15510;52.512;13.300;2023-06-01T11:47:08;8.32;;;4.60;;
28245;SDS011;15510;52.512;13.300;2023-06-01T11:52:09;5.13;;;4.45;;
28245;SDS011;15510;52.512;13.300;2023-06-01T11:54:35;6.18;;;4.13;;
28245;SDS011;15510;52.512;13.300;2023-06-01T11:57:02;5.82;;;4.10;;
28245;SDS011;15510;52.512;13.300;2023-06-01T12:02:15;8.73;;;4.30;;
28245;SDS011;15510;52.512;13.300;2023-06-01T12:04:53;7.88;;;3.80;;
28245;SDS011;15510;52.512;13.300;2023-06-01T12:07:31;6.90;;;3.85;;
28245;SDS011;15510;52.512;13.300;2023-06-01T12:10:09;6.65;;;3.67;;
28245;SDS011;15510;52.512;13.300;2023-06-01T12:12:40;4.03;;;3.33;;
28245;SDS011;15510;52.512;13.300;2023-06-01T12:15:08;6.38;;;3.63;;
28245;SDS011;15510;52.512;13.300;2023-06-01T12:17:48;5.95;;;2.90;;
28245;SDS011;15510;52.512;13.300;2023-06-01T12:20:34;5.90;;;3.45;;
28245;SDS011;15510;52.512;13.300;2023-06-01T12:25:35;6.10;;;3.20;;
28245;SDS011;15510;52.512;13.300;2023-06-01T12:28:05;5.53;;;2.85;;
28245;SDS011;15510;52.512;13.300;2023-06-01T12:30:33;6.68;;;2.83;;
28245;SDS011;15510;52.512;13.300;2023-06-01T12:32:59;8.32;;;3.42;;
28245;SDS011;15510;52.512;13.300;2023-06-01T12:35:25;6.20;;;3.38;;
28245;SDS011;15510;52.512;13.300;2023-06-01T12:38:09;6.30;;;2.92;;
28245;SDS011;15510;52.512;13.300;2023-06-01T12:40:35;5.93;;;2.95;;
28245;SDS011;15510;52.512;13.300;2023-06-01T12:43:02;21.30;;;6.38;;
28245;SDS011;15510;52.512;13.300;2023-06-01T12:45:39;11.90;;;3.55;;
28245;SDS011;15510;52.512;13.300;2023-06-01T12:48:05;7.47;;;3.30;;
28245;SDS011;15510;52.512;13.300;2023-06-01T12:50:31;7.10;;;3.97;;
28245;SDS011;15510;52.512;13.300;2023-06-01T12:52:57;6.30;;;2.78;;
28245;SDS011;15510;52.512;13.300;2023-06-01T12:55:23;5.43;;;2.70;;
28245;SDS011;15510;52.512;13.300;2023-06-01T12:57:52;6.93;;;3.33;;
28245;SDS011;15510;52.512;13.300;2023-06-01T13:00:19;7.57;;;2.85;;
28245;SDS011;15510;52.512;13.300;2023-06-01T13:02:45;7.07;;;3.40;;
28245;SDS011;15510;52.512;13.300;2023-06-01T13:05:14;7.13;;;2.95;;
28245;SDS011;15510;52.512;13.300;2023-06-01T13:07:42;5.63;;;2.88;;
28245;SDS011;15510;52.512;13.300;2023-06-01T13:10:10;6.30;;;3.08;;
28245;SDS011;15510;52.512;13.300;2023-06-01T13:12:36;8.25;;;3.30;;
28245;SDS011;15510;52.512;13.300;2023-06-01T13:15:02;6.68;;;2.80;;
28245;SDS011;15510;52.512;13.300;2023-06-01T13:17:28;6.68;;;2.90;;
28245;SDS011;15510;52.512;13.300;2023-06-01T13:19:54;6.30;;;3.40;;
28245;SDS011;15510;52.512;13.300;2023-06-01T13:22:20;6.15;;;2.30;;
28245;SDS011;15510;52.512;13.300;2023-06-01T13:24:47;4.93;;;1.95;;
28245;SDS011;15510;52.512;13.300;2023-06-01T13:27:13;6.85;;;2.55;;
28245;SDS011;15510;52.512;13.300;2023-06-01T13:29:39;4.75;;;2.03;;
28245;SDS011;15510;52.512;13.300;2023-06-01T13:32:05;9.45;;;2.80;;
28245;SDS011;15510;52.512;13.300;2023-06-01T13:34:30;6.38;;;2.67;;
28245;SDS011;15510;52.512;13.300;2023-06-01T13:36:56;7.45;;;2.72;;
28245;SDS011;15510;52.512;13.300;2023-06-01T13:39:22;7.82;;;2.65;;
28245;SDS011;15510;52.512;13.300;2023-06-01T13:41:48;4.18;;;2.05;;
28245;SDS011;15510;52.512;13.300;2023-06-01T13:44:14;5.13;;;2.20;;
28245;SDS011;15510;52.512;13.300;2023-06-01T13:46:42;6.78;;;2.30;;
28245;SDS011;15510;52.512;13.300;2023-06-01T13:49:09;6.57;;;2.35;;
28245;SDS011;15510;52.512;13.300;2023-06-01T13:51:35;5.93;;;2.33;;
28245;SDS011;15510;52.512;13.300;2023-06-01T13:54:03;5.90;;;2.10;;
28245;SDS011;15510;52.512;13.300;2023-06-01T13:56:29;6.32;;;2.10;;
28245;SDS011;15510;52.512;13.300;2023-06-01T13:58:55;10.20;;;2.10;;
28245;SDS011;15510;52.512;13.300;2023-06-01T14:01:21;6.13;;;2.53;;
28245;SDS011;15510;52.512;13.300;2023-06-01T14:03:47;5.90;;;2.67;;
28245;SDS011;15510;52.512;13.300;2023-06-01T14:06:13;4.82;;;2.30;;
28245;SDS011;15510;52.512;13.300;2023-06-01T14:08:38;8.68;;;2.28;;
28245;SDS011;15510;52.512;13.300;2023-06-01T14:11:04;7.30;;;2.10;;
28245;SDS011;15510;52.512;13.300;2023-06-01T14:13:30;7.68;;;2.47;;
28245;SDS011;15510;52.512;13.300;2023-06-01T14:15:56;4.43;;;2.67;;
28245;SDS011;15510;52.512;13.300;2023-06-01T14:18:22;7.18;;;2.20;;
28245;SDS011;15510;52.512;13.300;2023-06-01T14:20:47;4.60;;;2.03;;
28245;SDS011;15510;52.512;13.300;2023-06-01T14:23:13;6.50;;;1.88;;
28245;SDS011;15510;52.512;13.300;2023-06-01T14:25:40;7.60;;;2.13;;
28245;SDS011;15510;52.512;13.300;2023-06-01T14:28:05;7.00;;;2.40;;
28245;SDS011;15510;52.512;13.300;2023-06-01T14:30:31;4.30;;;2.22;;
28245;SDS011;15510;52.512;13.300;2023-06-01T14:33:00;6.53;;;2.20;;
28245;SDS011;15510;52.512;13.300;2023-06-01T14:35:28;5.25;;;2.60;;
28245;SDS011;15510;52.512;13.300;2023-06-01T14:37:54;10.40;;;2.70;;
28245;SDS011;15510;52.512;13.300;2023-06-01T14:40:21;5.25;;;2.15;;
28245;SDS011;15510;52.512;13.300;2023-06-01T14:42:47;6.32;;;2.00;;
28245;SDS011;15510;52.512;13.300;2023-06-01T14:45:13;6.05;;;1.83;;
28245;SDS011;15510;52.512;13.300;2023-06-01T14:47:39;4.97;;;2.22;;
28245;SDS011;15510;52.512;13.300;2023-06-01T14:50:08;7.18;;;2.50;;
28245;SDS011;15510;52.512;13.300;2023-06-01T14:52:37;5.65;;;2.45;;
28245;SDS011;15510;52.512;13.300;2023-06-01T14:55:03;6.03;;;2.63;;
28245;SDS011;15510;52.512;13.300;2023-06-01T14:57:29;8.27;;;2.85;;
28245;SDS011;15510;52.512;13.300;2023-06-01T14:59:56;10.05;;;3.15;;
28245;SDS011;15510;52.512;13.300;2023-06-01T15:02:22;7.40;;;2.90;;
28245;SDS011;15510;52.512;13.300;2023-06-01T15:04:48;7.03;;;3.40;;
28245;SDS011;15510;52.512;13.300;2023-06-01T15:07:14;10.27;;;4.22;;
28245;SDS011;15510;52.512;13.300;2023-06-01T15:09:40;10.20;;;3.45;;
28245;SDS011;15510;52.512;13.300;2023-06-01T15:12:05;8.73;;;2.95;;
28245;SDS011;15510;52.512;13.300;2023-06-01T15:14:31;4.25;;;2.60;;
28245;SDS011;15510;52.512;13.300;2023-06-01T15:16:57;9.25;;;2.88;;
28245;SDS011;15510;52.512;13.300;2023-06-01T15:19:24;5.03;;;3.10;;